Moon Township, Pennsylvania
Current Conditions -  °F | °C
As of 11:51 AM on Saturday 25 Oct 2014 (Local Time) from KPIT Reporting Station
Scattered Clouds Scattered Clouds  
Wind Chill: 14°   Ceiling: Unl
Heat Index: 14°   Visibility: 10mi
Dew Point:   Wind: 15mph
Humidity: 70%   Direction: 230°SW
Pressure: 29.89"   Gusts: 20mph
Location:  40.5042°N, 80.1934°W
Report Text: KPIT 251551Z 23013G17KT 10SM FEW070 SCT095 SCT250 14/09 A2989 RMK AO2 SLP130 T01440089
Loading
Personal Weather Stations






























Interactive Weather Map
Tropical Storm Tracking
New forecast layout! Learn more

10-Day Weather Forecast

Advertisements
Track Severe Weather on mobile